Aérodrome :
LOGIN :

S'inscrire | Disclaimer

   EN    FR    IT 

 










Légende :    VFR   VFR Marginal   IFR   IFR Intensif   IFR Très Intensif
Visi : 
Plafond : 
>= 8 km
>= 3000ft
5 à 8 km
1000 à 3000 ft
1500m à 5 km
500 à 1000 ft
800 à 1500m
200 à 500 ft
< 800m
< 200 ft
Symboles :   Orages  Brouillard  Fortes neiges  Fortes précipitations  Vent > 20 kt
SIGMETs :   Divers  Orages  Givrage  Turbulence  Onde Orograph.  Cendres Volcan.







- Altitude de l'aérodrome : 1535 ft
- Code IATA : OUD


GMFO - Ouja Angads

DERNIER METAR :
  • 160500Z VRB01KT 9999 FEW033 SCT100 16/09 Q1013 NOSIG

METARs EXPIRÉS :
  • 160400Z VRB02KT 9999 FEW033 SCT100 16/08 Q1013 NOSIG
  • 160300Z 21008KT 180V320 9999 FEW033 SCT100 17/08 Q1013 NOSIG

TAF TAF GMFO
Valide du 16 à 06h jusqu'au 17 à 12h UTC


160500Z 1606/1712 10006KT 9999 FEW030
BECMG 1616/1620 34017KT 9999 SCT033 SCT100
TEMPO 1702/1707 18005KT
Pas de NOTAMs connus pour ce terrain.



MET'MAP, la Météo Aéronautique d'un coup d'oeil ! - Copyright ORBIFLY Décembre 2007 - Disclaimer

ORBIFLY MET'MAP TEAM :

Programmation & Développement : Alexandra Zaïnal
Conception & Développement : Baudouin d'Aumeries
Co-Programmation & Développement : Marc-Olivier Méhu
Soutien technique & logistique : Manuel Goepfert

Contact : metmap@orbifly.com




SOURCES & CREDITS :

   NOAA